createdAt,value
2023-12-20T00:01:10.392Z,12.57
2023-12-20T00:03:42.142Z,14.65
2023-12-20T00:06:14.044Z,10.93
2023-12-20T00:08:41.532Z,11.80
2023-12-20T00:11:09.050Z,11.35
2023-12-20T00:13:36.216Z,11.30
2023-12-20T00:16:03.477Z,13.15
2023-12-20T00:18:33.331Z,10.30
2023-12-20T00:21:00.440Z,8.52
2023-12-20T00:23:30.961Z,8.70
2023-12-20T00:25:58.026Z,10.88
2023-12-20T00:28:25.154Z,11.18
2023-12-20T00:30:52.463Z,10.95
2023-12-20T00:33:20.432Z,9.80
2023-12-20T00:35:47.535Z,11.50
2023-12-20T00:38:14.493Z,10.40
2023-12-20T00:40:41.451Z,8.68
2023-12-20T00:43:08.650Z,11.18
2023-12-20T00:45:38.662Z,10.57
2023-12-20T00:48:06.324Z,9.48
2023-12-20T00:50:33.472Z,10.63
2023-12-20T00:53:00.513Z,10.85
2023-12-20T00:55:27.676Z,14.45
2023-12-20T00:57:55.320Z,9.68
2023-12-20T01:00:22.854Z,11.23
2023-12-20T01:02:52.840Z,10.43
2023-12-20T01:05:20.711Z,11.75
2023-12-20T01:07:48.289Z,10.30
2023-12-20T01:10:15.401Z,11.43
2023-12-20T01:12:45.500Z,12.82
2023-12-20T01:15:12.947Z,12.13
2023-12-20T01:17:43.474Z,11.35
2023-12-20T01:20:11.184Z,13.90
2023-12-20T01:22:38.276Z,13.18
2023-12-20T01:25:07.266Z,11.57
2023-12-20T01:27:34.328Z,12.63
2023-12-20T01:30:01.377Z,13.70
2023-12-20T01:32:28.435Z,16.83
2023-12-20T01:34:57.586Z,13.45
2023-12-20T01:37:27.841Z,12.30
2023-12-20T01:39:55.409Z,12.98
2023-12-20T01:42:23.525Z,14.20
2023-12-20T01:44:50.583Z,15.25
2023-12-20T01:47:18.089Z,12.15
2023-12-20T01:49:45.566Z,13.38
2023-12-20T01:52:13.558Z,14.48
2023-12-20T01:54:43.041Z,16.92
2023-12-20T01:57:11.430Z,16.15
2023-12-20T01:59:40.720Z,17.67
2023-12-20T02:02:09.472Z,18.92
2023-12-20T02:04:37.145Z,16.67
2023-12-20T02:07:11.198Z,22.08
2023-12-20T02:09:39.725Z,27.00
2023-12-20T02:12:07.534Z,26.85
2023-12-20T02:14:34.559Z,24.92
2023-12-20T02:17:01.578Z,25.65
2023-12-20T02:19:28.875Z,19.25
2023-12-20T02:22:14.686Z,21.45
2023-12-20T02:24:42.490Z,21.20
2023-12-20T02:27:09.753Z,22.38
2023-12-20T02:29:37.455Z,22.05
2023-12-20T02:32:04.855Z,19.13
2023-12-20T02:34:32.156Z,18.25
2023-12-20T02:36:59.178Z,22.50
2023-12-20T02:39:26.270Z,27.65
2023-12-20T02:41:56.216Z,20.08
2023-12-20T02:44:23.463Z,22.88
2023-12-20T02:46:50.668Z,16.55
2023-12-20T02:49:17.685Z,20.77
2023-12-20T02:51:45.014Z,22.00
2023-12-20T02:54:12.231Z,19.88
2023-12-20T02:56:39.663Z,17.67
2023-12-20T02:59:07.301Z,21.52
2023-12-20T03:01:34.541Z,21.70
2023-12-20T03:04:02.487Z,19.58
2023-12-20T03:06:29.683Z,19.27
2023-12-20T03:08:56.814Z,19.40
2023-12-20T03:11:28.166Z,17.35
2023-12-20T03:13:55.572Z,20.80
2023-12-20T03:16:22.668Z,17.15
2023-12-20T03:18:49.979Z,20.45
2023-12-20T03:21:17.016Z,21.63
2023-12-20T03:23:44.597Z,16.02
2023-12-20T03:26:11.785Z,23.27
2023-12-20T03:28:38.759Z,22.27
2023-12-20T03:31:05.821Z,21.42
2023-12-20T03:33:33.081Z,28.92
2023-12-20T03:36:00.104Z,20.05
2023-12-20T03:38:27.218Z,25.63
2023-12-20T03:40:54.311Z,23.80
2023-12-20T03:43:21.589Z,20.27
2023-12-20T03:45:48.673Z,21.17
2023-12-20T03:48:15.812Z,22.05
2023-12-20T03:50:42.907Z,20.05
2023-12-20T03:53:10.170Z,25.33
2023-12-20T03:55:37.147Z,22.48
2023-12-20T03:58:04.444Z,24.23
2023-12-20T04:00:31.430Z,19.92
2023-12-20T04:02:58.499Z,26.85
2023-12-20T04:05:25.719Z,19.38
2023-12-20T04:07:52.894Z,18.13
2023-12-20T04:10:20.166Z,20.60
2023-12-20T04:12:47.334Z,15.82
2023-12-20T04:15:14.846Z,17.92
2023-12-20T04:17:42.063Z,19.00
2023-12-20T04:20:09.775Z,19.83
2023-12-20T04:22:36.877Z,21.08
2023-12-20T04:25:04.156Z,19.10
2023-12-20T04:27:31.492Z,20.83
2023-12-20T04:29:58.961Z,21.70
2023-12-20T04:32:25.983Z,22.33
2023-12-20T04:34:52.978Z,20.77
2023-12-20T04:37:20.103Z,19.35
2023-12-20T04:39:47.218Z,17.08
2023-12-20T04:42:14.243Z,29.83
2023-12-20T04:44:41.329Z,22.20
2023-12-20T04:47:08.308Z,16.95
2023-12-20T04:49:35.858Z,19.88
2023-12-20T04:52:03.000Z,28.95
2023-12-20T04:54:30.065Z,22.45
2023-12-20T04:56:57.163Z,18.15
2023-12-20T04:59:24.157Z,18.42
2023-12-20T05:01:51.383Z,25.80
2023-12-20T05:04:18.451Z,19.73
2023-12-20T05:06:45.571Z,17.17
2023-12-20T05:09:12.647Z,17.98
2023-12-20T05:11:40.514Z,23.00
2023-12-20T05:14:08.599Z,16.67
2023-12-20T05:16:35.656Z,17.08
2023-12-20T05:19:07.907Z,16.98
2023-12-20T05:21:35.275Z,19.50
2023-12-20T05:24:02.353Z,19.48
2023-12-20T05:26:30.857Z,14.25
2023-12-20T05:28:57.971Z,14.10
2023-12-20T05:31:25.015Z,16.52
2023-12-20T05:33:52.442Z,17.73
2023-12-20T05:36:20.255Z,17.00
2023-12-20T05:38:47.192Z,17.60
2023-12-20T05:41:14.793Z,15.43
2023-12-20T05:43:41.846Z,19.05
2023-12-20T05:46:11.064Z,16.20
2023-12-20T05:48:38.173Z,16.50
2023-12-20T05:51:05.699Z,14.90
2023-12-20T05:53:32.666Z,18.48
2023-12-20T05:55:59.666Z,17.40
2023-12-20T05:58:26.702Z,19.13
2023-12-20T06:00:53.814Z,18.30
2023-12-20T06:03:20.904Z,18.63
2023-12-20T06:05:47.902Z,20.17
2023-12-20T06:08:14.856Z,22.38
2023-12-20T06:10:41.882Z,17.02
2023-12-20T06:13:09.072Z,16.52
2023-12-20T06:15:36.854Z,15.57
2023-12-20T06:18:04.705Z,20.00
2023-12-20T06:20:31.806Z,17.27
2023-12-20T06:22:58.764Z,17.05
2023-12-20T06:25:26.596Z,17.38
2023-12-20T06:27:53.656Z,14.23
2023-12-20T06:30:20.977Z,14.13
2023-12-20T06:32:49.119Z,17.50
2023-12-20T06:35:16.410Z,13.75
2023-12-20T06:37:46.357Z,19.80
2023-12-20T06:40:17.727Z,25.02
2023-12-20T06:42:54.463Z,17.02
2023-12-20T06:45:26.507Z,14.23
2023-12-20T06:47:53.562Z,13.27
2023-12-20T06:50:20.748Z,15.82
2023-12-20T06:52:47.768Z,14.73
2023-12-20T06:55:14.990Z,15.38
2023-12-20T06:57:42.588Z,16.42
2023-12-20T07:00:10.269Z,15.43
2023-12-20T07:02:37.252Z,17.00
2023-12-20T07:05:04.850Z,16.48
2023-12-20T07:07:32.012Z,14.65
2023-12-20T07:09:59.296Z,13.88
2023-12-20T07:12:26.518Z,12.82
2023-12-20T07:14:53.570Z,18.08
2023-12-20T07:17:20.595Z,12.52
2023-12-20T07:19:48.029Z,12.57
2023-12-20T07:22:15.195Z,12.85
2023-12-20T07:24:42.448Z,20.42
2023-12-20T07:27:09.657Z,12.70
2023-12-20T07:29:36.820Z,9.65
2023-12-20T07:32:04.011Z,13.05
2023-12-20T07:34:32.607Z,14.90
2023-12-20T07:37:00.689Z,8.98
2023-12-20T07:39:27.861Z,15.07
2023-12-20T07:41:55.225Z,11.63
2023-12-20T07:44:22.631Z,15.40
2023-12-20T07:46:49.972Z,12.18
2023-12-20T07:49:17.208Z,9.30
2023-12-20T07:51:44.392Z,14.88
2023-12-20T07:54:11.731Z,12.52
2023-12-20T07:56:41.307Z,12.45
2023-12-20T07:59:15.654Z,9.57
2023-12-20T08:01:49.251Z,9.93
2023-12-20T08:04:16.431Z,14.30
2023-12-20T08:06:43.924Z,13.82
2023-12-20T08:09:11.721Z,15.18
2023-12-20T08:11:38.892Z,12.00
2023-12-20T08:14:05.870Z,12.88
2023-12-20T08:16:33.227Z,15.85
2023-12-20T08:19:00.509Z,10.43
2023-12-20T08:21:27.717Z,9.02
2023-12-20T08:23:54.838Z,11.52
2023-12-20T08:26:23.172Z,16.60
2023-12-20T08:28:50.414Z,17.25
2023-12-20T08:31:18.824Z,19.27
2023-12-20T08:33:46.750Z,12.70
2023-12-20T08:36:14.414Z,13.85
2023-12-20T08:38:41.662Z,9.55
2023-12-20T08:41:08.893Z,13.25
2023-12-20T08:43:36.958Z,15.18
2023-12-20T08:46:04.715Z,16.95
2023-12-20T08:48:32.020Z,11.10
2023-12-20T08:50:59.142Z,14.88
2023-12-20T08:53:26.455Z,13.85
2023-12-20T08:55:53.607Z,14.27
2023-12-20T08:58:20.705Z,14.43
2023-12-20T09:00:47.784Z,9.65
2023-12-20T09:03:14.873Z,12.90
2023-12-20T09:05:42.053Z,24.13
2023-12-20T09:08:11.264Z,10.60
2023-12-20T09:10:39.340Z,27.58
2023-12-20T09:13:06.487Z,15.13
2023-12-20T09:15:37.004Z,14.93
2023-12-20T09:18:05.198Z,16.27
2023-12-20T09:20:32.921Z,14.18
2023-12-20T09:23:00.192Z,23.23
2023-12-20T09:25:31.240Z,13.15
2023-12-20T09:27:58.868Z,22.20
2023-12-20T09:30:27.929Z,15.48
2023-12-20T09:32:58.735Z,15.02
2023-12-20T09:35:27.734Z,12.45
2023-12-20T09:37:54.941Z,15.52
2023-12-20T09:40:22.189Z,18.40
2023-12-20T09:42:57.633Z,21.35
2023-12-20T09:45:25.202Z,16.35
2023-12-20T09:47:54.746Z,21.50
2023-12-20T09:50:23.043Z,23.63
2023-12-20T09:52:54.690Z,17.80
2023-12-20T09:55:23.277Z,13.60
2023-12-20T09:57:50.936Z,17.58
2023-12-20T10:00:18.866Z,16.58
2023-12-20T10:03:07.656Z,18.75
2023-12-20T10:05:35.867Z,12.13
2023-12-20T10:08:04.481Z,21.60
2023-12-20T10:10:38.644Z,20.00
2023-12-20T10:13:14.818Z,26.80
2023-12-20T10:15:43.452Z,37.72
2023-12-20T10:18:11.102Z,19.52
2023-12-20T10:20:38.339Z,15.70
2023-12-20T10:23:05.711Z,21.67
2023-12-20T10:25:33.522Z,14.48
2023-12-20T10:28:12.332Z,24.17
2023-12-20T10:30:40.499Z,32.60
2023-12-20T10:33:12.242Z,19.92
2023-12-20T10:35:44.029Z,30.35
2023-12-20T10:38:15.316Z,20.30
2023-12-20T10:40:42.864Z,27.70
2023-12-20T10:43:10.908Z,25.85
2023-12-20T10:45:38.881Z,25.42
2023-12-20T10:48:06.627Z,25.45
2023-12-20T10:50:37.493Z,21.90
2023-12-20T10:53:05.146Z,19.48
2023-12-20T10:55:32.679Z,18.08
2023-12-20T10:58:08.081Z,22.83
2023-12-20T11:00:41.476Z,17.35
2023-12-20T11:03:10.589Z,18.67
2023-12-20T11:05:54.941Z,20.33
2023-12-20T11:08:27.696Z,33.33
2023-12-20T11:11:06.849Z,19.45
2023-12-20T11:13:45.531Z,22.92
2023-12-20T11:16:12.879Z,13.65
2023-12-20T11:18:42.101Z,20.83
2023-12-20T11:21:09.217Z,23.42
2023-12-20T11:23:37.368Z,17.92
2023-12-20T11:26:04.874Z,15.45
2023-12-20T11:28:32.167Z,19.60
2023-12-20T11:31:01.497Z,16.10
2023-12-20T11:33:32.912Z,20.75
2023-12-20T11:36:04.454Z,9.50
2023-12-20T11:38:38.931Z,17.23
2023-12-20T11:43:40.359Z,11.85
2023-12-20T11:46:09.756Z,19.17
2023-12-20T11:48:39.480Z,11.02
2023-12-20T11:51:14.105Z,18.92
2023-12-20T11:56:09.683Z,18.83
2023-12-20T11:58:37.548Z,18.63
2023-12-20T12:01:09.079Z,10.75
2023-12-20T12:03:37.305Z,13.82
2023-12-20T12:06:06.397Z,15.07
2023-12-20T12:08:33.820Z,14.50
2023-12-20T12:11:01.149Z,11.52
2023-12-20T12:13:29.268Z,10.40
2023-12-20T12:15:56.605Z,21.17
2023-12-20T12:18:23.961Z,21.73
2023-12-20T12:20:51.874Z,17.10
2023-12-20T12:23:25.607Z,13.95
2023-12-20T12:25:52.866Z,13.65
2023-12-20T12:28:19.940Z,10.65
2023-12-20T12:31:02.372Z,12.10
2023-12-20T12:33:29.789Z,12.95
2023-12-20T12:35:57.322Z,14.88
2023-12-20T12:38:25.849Z,14.95
2023-12-20T12:40:54.939Z,15.98
2023-12-20T12:43:24.287Z,9.98
2023-12-20T12:45:51.840Z,13.18
2023-12-20T12:48:19.172Z,16.63
2023-12-20T12:50:47.680Z,11.35
2023-12-20T12:53:14.814Z,10.07
2023-12-20T12:55:41.879Z,14.35
2023-12-20T12:58:09.012Z,13.77
2023-12-20T13:00:36.400Z,7.95
2023-12-20T13:03:03.945Z,10.75
2023-12-20T13:05:32.189Z,9.68
2023-12-20T13:08:00.158Z,13.45
2023-12-20T13:10:27.321Z,14.90
2023-12-20T13:12:54.511Z,16.20
2023-12-20T13:15:24.837Z,8.93
2023-12-20T13:17:53.549Z,15.80
2023-12-20T13:20:21.236Z,11.63
2023-12-20T13:22:48.509Z,22.70
2023-12-20T13:25:15.690Z,15.60
2023-12-20T13:27:43.217Z,15.77
2023-12-20T13:30:11.023Z,16.02
2023-12-20T13:32:38.384Z,16.05
2023-12-20T13:35:06.047Z,11.27
2023-12-20T13:37:33.514Z,11.38
2023-12-20T13:40:00.632Z,9.50
2023-12-20T13:42:28.596Z,9.32
2023-12-20T13:44:55.788Z,7.90
2023-12-20T13:47:25.188Z,14.63
2023-12-20T13:49:52.741Z,18.00
2023-12-20T13:52:20.249Z,20.33
2023-12-20T13:54:47.276Z,6.75
2023-12-20T13:57:22.180Z,11.20
2023-12-20T13:59:59.362Z,7.72
2023-12-20T14:02:28.622Z,9.98
2023-12-20T14:04:55.895Z,13.00
2023-12-20T14:07:23.255Z,20.75
2023-12-20T14:09:50.654Z,9.57
2023-12-20T14:12:17.825Z,8.00
2023-12-20T14:14:46.444Z,9.32
2023-12-20T14:17:13.909Z,8.15
2023-12-20T14:19:41.147Z,11.20
2023-12-20T14:22:08.338Z,7.95
2023-12-20T14:24:37.399Z,10.57
2023-12-20T14:27:04.571Z,8.07
2023-12-20T14:29:31.874Z,10.48
2023-12-20T14:31:58.933Z,15.15
2023-12-20T14:34:26.107Z,24.60
2023-12-20T14:36:54.349Z,7.20
2023-12-20T14:39:21.500Z,9.13
2023-12-20T14:41:48.509Z,14.00
2023-12-20T14:44:15.500Z,10.15
2023-12-20T14:46:42.696Z,17.35
2023-12-20T14:49:09.977Z,11.10
2023-12-20T14:51:38.806Z,9.77
2023-12-20T14:54:10.740Z,6.30
2023-12-20T14:56:39.003Z,6.30
2023-12-20T14:59:06.166Z,8.25
2023-12-20T15:01:33.342Z,12.60
2023-12-20T15:04:02.083Z,8.80
2023-12-20T15:06:29.221Z,8.05
2023-12-20T15:08:56.686Z,13.27
2023-12-20T15:11:23.841Z,9.00
2023-12-20T15:13:56.924Z,15.30
2023-12-20T15:16:25.652Z,14.85
2023-12-20T15:18:55.069Z,17.42
2023-12-20T15:21:31.489Z,17.65
2023-12-20T15:24:07.038Z,17.45
2023-12-20T15:26:34.943Z,13.13
2023-12-20T15:29:02.778Z,13.43
2023-12-20T15:31:29.840Z,14.18
2023-12-20T15:33:57.039Z,13.02
2023-12-20T15:36:24.249Z,14.65
2023-12-20T15:38:51.324Z,26.13
2023-12-20T15:41:22.852Z,14.45
2023-12-20T15:43:49.834Z,23.27
2023-12-20T15:46:17.323Z,15.63
2023-12-20T15:48:44.526Z,34.08
2023-12-20T15:51:11.695Z,28.50
2023-12-20T15:53:38.831Z,21.27
2023-12-20T15:56:06.648Z,19.08
2023-12-20T15:58:34.871Z,20.67
2023-12-20T16:01:01.976Z,23.50
2023-12-20T16:05:56.806Z,24.63
2023-12-20T16:08:23.829Z,13.00
2023-12-20T16:10:51.302Z,14.73
2023-12-20T16:13:18.518Z,12.85
2023-12-20T16:15:45.598Z,13.77
2023-12-20T16:18:13.213Z,18.75
2023-12-20T16:20:40.581Z,16.40
2023-12-20T16:23:07.998Z,16.27
2023-12-20T16:25:39.340Z,25.23
2023-12-20T16:28:06.985Z,20.42
2023-12-20T16:30:34.111Z,23.38
2023-12-20T16:33:01.418Z,13.27
2023-12-20T16:35:28.481Z,23.63
2023-12-20T16:37:55.713Z,27.30
2023-12-20T16:40:26.080Z,12.55
2023-12-20T16:42:53.975Z,22.90
2023-12-20T16:45:21.207Z,23.83
2023-12-20T16:47:48.620Z,24.90
2023-12-20T16:50:16.202Z,31.38
2023-12-20T16:52:43.778Z,19.95
2023-12-20T16:55:12.475Z,20.40
2023-12-20T16:57:40.226Z,26.77
2023-12-20T17:00:08.372Z,22.70
2023-12-20T17:02:35.635Z,18.77
2023-12-20T17:05:03.048Z,29.05
2023-12-20T17:07:30.570Z,30.98
2023-12-20T17:09:57.851Z,17.13
2023-12-20T17:12:26.454Z,25.65
2023-12-20T17:14:54.690Z,20.70
2023-12-20T17:17:22.604Z,13.27
2023-12-20T17:19:49.727Z,14.65
2023-12-20T17:22:16.970Z,8.05
2023-12-20T17:24:44.046Z,10.63
2023-12-20T17:27:11.697Z,13.43
2023-12-20T17:29:38.756Z,7.97
2023-12-20T17:32:06.744Z,9.05
2023-12-20T17:34:33.950Z,14.27
2023-12-20T17:37:04.272Z,48.70
2023-12-20T17:39:31.694Z,17.90
2023-12-20T17:41:58.741Z,10.43
2023-12-20T17:44:26.156Z,10.35
2023-12-20T17:46:53.624Z,8.93
2023-12-20T17:49:20.949Z,8.73
2023-12-20T17:51:48.554Z,9.23
2023-12-20T17:54:15.793Z,8.48
2023-12-20T17:56:42.812Z,11.18
2023-12-20T17:59:09.886Z,15.15
2023-12-20T18:01:37.535Z,9.60
2023-12-20T18:04:04.983Z,15.23
2023-12-20T18:06:32.170Z,11.15
2023-12-20T18:08:59.440Z,10.52
2023-12-20T18:11:26.922Z,14.38
2023-12-20T18:13:54.214Z,21.48
2023-12-20T18:16:21.326Z,27.67
2023-12-20T18:18:48.720Z,12.88
2023-12-20T18:21:15.990Z,15.48
2023-12-20T18:23:43.360Z,22.52
2023-12-20T18:26:10.439Z,14.07
2023-12-20T18:28:38.444Z,15.85
2023-12-20T18:31:06.948Z,17.05
2023-12-20T18:33:36.962Z,22.08
2023-12-20T18:36:05.383Z,15.98
2023-12-20T18:38:34.055Z,11.93
2023-12-20T18:41:01.801Z,15.25
2023-12-20T18:43:29.129Z,15.15
2023-12-20T18:45:58.430Z,18.70
2023-12-20T18:48:27.378Z,24.65
2023-12-20T18:50:54.494Z,17.45
2023-12-20T18:53:22.033Z,19.05
2023-12-20T18:55:49.156Z,29.80
2023-12-20T18:58:16.308Z,27.40
2023-12-20T19:00:43.479Z,21.80
2023-12-20T19:03:11.141Z,17.58
2023-12-20T19:05:38.701Z,21.55
2023-12-20T19:08:06.482Z,26.08
2023-12-20T19:10:33.649Z,24.20
2023-12-20T19:13:01.079Z,22.58
2023-12-20T19:15:28.307Z,26.85
2023-12-20T19:17:55.637Z,27.67
2023-12-20T19:20:22.998Z,24.25
2023-12-20T19:22:50.226Z,50.50
2023-12-20T19:25:17.466Z,21.33
2023-12-20T19:27:45.512Z,38.75
2023-12-20T19:30:14.833Z,20.70
2023-12-20T19:32:42.541Z,21.73
2023-12-20T19:35:10.447Z,29.10
2023-12-20T19:37:38.025Z,15.73
2023-12-20T19:40:06.313Z,29.17
2023-12-20T19:42:37.738Z,40.10
2023-12-20T19:45:09.206Z,28.10
2023-12-20T19:47:36.996Z,20.88
2023-12-20T19:50:05.586Z,33.22
2023-12-20T19:52:33.354Z,31.63
2023-12-20T19:55:00.768Z,24.17
2023-12-20T19:57:28.007Z,24.05
2023-12-20T19:59:55.679Z,41.67
2023-12-20T20:02:22.910Z,25.02
2023-12-20T20:04:50.029Z,27.90
2023-12-20T20:07:21.042Z,36.88
2023-12-20T20:09:48.212Z,25.20
2023-12-20T20:12:15.377Z,26.05
2023-12-20T20:14:42.458Z,38.67
2023-12-20T20:17:10.514Z,30.98
2023-12-20T20:19:37.846Z,26.83
2023-12-20T20:22:05.511Z,28.88
2023-12-20T20:24:32.637Z,23.08
2023-12-20T20:26:59.634Z,33.08
2023-12-20T20:29:26.643Z,23.70
2023-12-20T20:31:56.103Z,25.58
2023-12-20T20:34:29.118Z,24.17
2023-12-20T20:36:56.772Z,25.20
2023-12-20T20:39:24.486Z,20.50
2023-12-20T20:41:52.035Z,29.73
2023-12-20T20:44:19.121Z,26.42
2023-12-20T20:46:46.482Z,30.13
2023-12-20T20:49:14.100Z,23.75
2023-12-20T20:51:41.221Z,26.67
2023-12-20T20:54:16.234Z,29.33
2023-12-20T20:56:46.327Z,21.75
2023-12-20T20:59:13.792Z,23.38
2023-12-20T21:01:41.080Z,23.63
2023-12-20T21:04:09.132Z,34.22
2023-12-20T21:06:36.332Z,25.80
2023-12-20T21:09:03.716Z,30.27
2023-12-20T21:11:30.880Z,24.50
2023-12-20T21:13:58.421Z,34.20
2023-12-20T21:16:25.668Z,40.40
2023-12-20T21:18:52.748Z,23.77
2023-12-20T21:21:19.927Z,29.65
2023-12-20T21:23:46.921Z,31.70
2023-12-20T21:26:13.936Z,29.23
2023-12-20T21:28:41.093Z,25.80
2023-12-20T21:31:08.303Z,34.97
2023-12-20T21:33:35.482Z,32.00
2023-12-20T21:36:02.818Z,21.08
2023-12-20T21:38:29.912Z,27.40
2023-12-20T21:40:57.036Z,29.08
2023-12-20T21:43:24.382Z,32.15
2023-12-20T21:45:52.056Z,26.15
2023-12-20T21:48:19.389Z,25.73
2023-12-20T21:50:46.549Z,29.23
2023-12-20T21:53:13.529Z,22.80
2023-12-20T21:55:41.067Z,23.75
2023-12-20T21:58:09.771Z,19.38
2023-12-20T22:00:37.497Z,28.13
2023-12-20T22:03:09.576Z,26.25
2023-12-20T22:05:38.585Z,26.40
2023-12-20T22:08:07.254Z,30.42
2023-12-20T22:10:34.503Z,24.17
2023-12-20T22:13:07.326Z,25.67
2023-12-20T22:15:34.372Z,23.80
2023-12-20T22:18:01.517Z,25.85
2023-12-20T22:20:29.059Z,20.83
2023-12-20T22:22:56.114Z,22.77
2023-12-20T22:25:23.316Z,26.42
2023-12-20T22:27:50.648Z,27.00
2023-12-20T22:30:17.980Z,22.05
2023-12-20T22:32:45.105Z,23.58
2023-12-20T22:35:15.344Z,24.70
2023-12-20T22:37:45.955Z,23.50
2023-12-20T22:40:13.550Z,29.90
2023-12-20T22:42:41.196Z,22.17
2023-12-20T22:45:08.884Z,26.63
2023-12-20T22:47:35.908Z,18.80
2023-12-20T22:50:03.221Z,21.17
2023-12-20T22:52:30.917Z,24.52
2023-12-20T22:54:58.071Z,18.45
2023-12-20T22:57:25.406Z,25.20
2023-12-20T22:59:54.122Z,23.75
2023-12-20T23:02:21.297Z,26.05
2023-12-20T23:04:48.475Z,35.00
2023-12-20T23:07:15.740Z,22.25
2023-12-20T23:09:43.146Z,19.17
2023-12-20T23:12:10.204Z,19.95
2023-12-20T23:14:37.271Z,17.83
2023-12-20T23:17:04.668Z,32.65
2023-12-20T23:19:31.947Z,20.77
2023-12-20T23:21:59.162Z,30.77
2023-12-20T23:24:26.282Z,22.30
2023-12-20T23:26:53.380Z,31.33
2023-12-20T23:29:20.677Z,24.48
2023-12-20T23:31:47.809Z,27.88
2023-12-20T23:34:16.851Z,30.88
2023-12-20T23:36:45.306Z,28.42
2023-12-20T23:39:12.465Z,24.67
2023-12-20T23:41:39.613Z,24.40
2023-12-20T23:44:06.992Z,20.33
2023-12-20T23:46:34.092Z,21.67
2023-12-20T23:49:01.516Z,20.38
2023-12-20T23:51:28.629Z,19.92
2023-12-20T23:53:55.659Z,22.85
2023-12-20T23:56:30.499Z,25.15
2023-12-20T23:59:02.460Z,19.30
